createdAt,value
2017-09-19T00:00:41.944Z,7.2
2017-09-19T00:01:43.669Z,6.6
2017-09-19T00:02:46.887Z,7.0
2017-09-19T00:03:49.430Z,6.6
2017-09-19T00:04:52.976Z,6.5
2017-09-19T00:05:55.568Z,7.0
2017-09-19T00:06:58.466Z,6.5
2017-09-19T00:08:01.132Z,7.0
2017-09-19T00:09:03.447Z,5.9
2017-09-19T00:10:08.948Z,6.4
2017-09-19T00:11:12.580Z,6.0
2017-09-19T00:12:14.288Z,5.9
2017-09-19T00:13:16.011Z,6.1
2017-09-19T00:14:19.443Z,5.8
2017-09-19T00:15:22.626Z,5.7
2017-09-19T00:16:25.739Z,6.4
2017-09-19T00:17:29.038Z,5.7
2017-09-19T00:18:32.070Z,5.4
2017-09-19T00:19:33.842Z,5.7
2017-09-19T00:20:39.019Z,6.0
2017-09-19T00:21:43.539Z,5.8
2017-09-19T00:22:47.048Z,6.2
2017-09-19T00:23:48.761Z,4.9
2017-09-19T00:24:50.464Z,5.0
2017-09-19T00:25:53.927Z,4.3
2017-09-19T00:26:57.103Z,5.0
2017-09-19T00:27:59.471Z,4.6
2017-09-19T00:29:02.511Z,4.4
2017-09-19T00:30:05.954Z,4.9
2017-09-19T00:31:09.188Z,4.7
2017-09-19T00:32:12.902Z,4.9
2017-09-19T00:33:15.270Z,5.4
2017-09-19T00:34:18.455Z,5.2
2017-09-19T00:35:20.880Z,5.2
2017-09-19T00:36:23.450Z,5.1
2017-09-19T00:37:29.032Z,4.7
2017-09-19T00:38:31.890Z,5.3
2017-09-19T00:39:33.502Z,5.4
2017-09-19T00:40:35.813Z,4.8
2017-09-19T00:41:38.671Z,4.6
2017-09-19T00:42:41.128Z,5.1
2017-09-19T00:43:43.303Z,4.3
2017-09-19T00:44:45.034Z,4.4
2017-09-19T00:45:48.385Z,4.9
2017-09-19T00:46:50.886Z,4.8
2017-09-19T00:47:52.393Z,4.3
2017-09-19T00:48:55.929Z,4.3
2017-09-19T00:49:59.628Z,4.6
2017-09-19T00:51:05.020Z,4.0
2017-09-19T00:52:06.714Z,4.6
2017-09-19T00:53:10.414Z,3.9
2017-09-19T00:54:13.563Z,4.3
2017-09-19T00:55:16.753Z,4.6
2017-09-19T00:56:19.335Z,4.5
2017-09-19T00:57:21.834Z,4.9
2017-09-19T00:58:25.436Z,5.2
2017-09-19T00:59:28.772Z,5.4
2017-09-19T01:00:31.770Z,5.4
2017-09-19T01:01:35.597Z,5.6
2017-09-19T01:02:37.866Z,5.5
2017-09-19T01:03:41.275Z,5.2
2017-09-19T01:04:43.658Z,6.0
2017-09-19T01:05:45.395Z,6.0
2017-09-19T01:06:47.714Z,6.2
2017-09-19T01:07:50.800Z,6.0
2017-09-19T01:08:52.680Z,5.4
2017-09-19T01:09:54.979Z,6.0
2017-09-19T01:10:58.049Z,5.4
2017-09-19T01:12:00.581Z,5.6
2017-09-19T01:13:03.292Z,5.3
2017-09-19T01:14:05.719Z,5.5
2017-09-19T01:15:08.885Z,4.9
2017-09-19T01:16:09.748Z,4.8
2017-09-19T01:17:13.516Z,5.1
2017-09-19T01:18:16.222Z,5.5
2017-09-19T01:19:20.289Z,5.6
2017-09-19T01:20:23.930Z,6.2
2017-09-19T01:21:26.230Z,5.9
2017-09-19T01:22:29.163Z,6.0
2017-09-19T01:23:34.862Z,5.7
2017-09-19T01:24:36.890Z,6.8
2017-09-19T01:25:39.591Z,6.6
2017-09-19T01:26:41.546Z,6.4
2017-09-19T01:27:44.711Z,6.3
2017-09-19T01:28:46.804Z,5.9
2017-09-19T01:29:49.391Z,6.2
2017-09-19T01:30:52.405Z,6.0
2017-09-19T01:31:57.009Z,6.9
2017-09-19T01:33:00.462Z,6.1
2017-09-19T01:34:02.467Z,6.5
2017-09-19T01:35:06.478Z,6.6
2017-09-19T01:36:08.414Z,6.5
2017-09-19T01:37:10.545Z,6.0
2017-09-19T01:38:14.008Z,6.0
2017-09-19T01:39:17.590Z,5.8
2017-09-19T01:40:19.613Z,6.5
2017-09-19T01:41:22.984Z,6.4
2017-09-19T01:42:27.199Z,6.7
2017-09-19T01:43:30.895Z,6.6
2017-09-19T01:44:32.329Z,6.4
2017-09-19T01:45:36.213Z,6.8
2017-09-19T01:46:39.713Z,7.1
2017-09-19T01:47:43.003Z,6.3
2017-09-19T01:48:47.502Z,6.4
2017-09-19T01:49:49.885Z,6.7
2017-09-19T01:50:52.438Z,7.4
2017-09-19T01:51:54.181Z,6.4
2017-09-19T01:52:57.890Z,6.9
2017-09-19T01:53:59.766Z,6.6
2017-09-19T01:55:02.225Z,6.8
2017-09-19T02:01:01.930Z,5.3
2017-09-19T02:02:05.289Z,6.4
2017-09-19T02:03:07.698Z,6.9
2017-09-19T02:04:10.073Z,6.9
2017-09-19T02:05:15.663Z,6.8
2017-09-19T02:06:19.983Z,7.8
2017-09-19T02:07:24.787Z,7.4
2017-09-19T02:08:27.391Z,7.0
2017-09-19T02:09:31.675Z,7.9
2017-09-19T02:10:33.334Z,7.7
2017-09-19T02:11:37.652Z,7.9
2017-09-19T02:12:40.392Z,8.3
2017-09-19T02:13:44.263Z,7.9
2017-09-19T02:14:49.128Z,7.6
2017-09-19T02:15:53.160Z,7.3
2017-09-19T02:16:57.567Z,7.5
2017-09-19T02:18:00.630Z,7.2
2017-09-19T02:19:03.259Z,7.1
2017-09-19T02:20:06.301Z,6.9
2017-09-19T02:21:07.958Z,7.0
2017-09-19T02:22:11.057Z,7.4
2017-09-19T02:23:12.612Z,6.9
2017-09-19T02:24:15.844Z,7.0
2017-09-19T02:25:18.796Z,6.8
2017-09-19T02:26:22.075Z,7.3
2017-09-19T02:27:24.650Z,7.6
2017-09-19T02:28:27.790Z,8.1
2017-09-19T02:29:32.057Z,8.1
2017-09-19T02:30:35.057Z,8.1
2017-09-19T02:31:36.744Z,8.4
2017-09-19T02:32:38.393Z,8.1
2017-09-19T02:33:43.627Z,7.5
2017-09-19T02:34:45.276Z,7.6
2017-09-19T02:35:48.557Z,8.6
2017-09-19T02:36:52.397Z,8.1
2017-09-19T02:37:54.047Z,8.0
2017-09-19T02:38:55.711Z,7.6
2017-09-19T02:39:58.638Z,7.6
2017-09-19T02:41:01.870Z,7.7
2017-09-19T02:42:05.057Z,7.8
2017-09-19T02:43:07.308Z,7.2
2017-09-19T02:44:09.836Z,7.9
2017-09-19T02:45:12.228Z,8.1
2017-09-19T02:46:16.142Z,8.4
2017-09-19T02:47:19.266Z,8.0
2017-09-19T02:48:21.707Z,7.9
2017-09-19T02:49:26.498Z,7.8
2017-09-19T02:50:28.644Z,7.7
2017-09-19T02:51:32.205Z,7.2
2017-09-19T02:52:36.184Z,8.0
2017-09-19T02:53:40.322Z,7.8
2017-09-19T02:54:45.237Z,7.2
2017-09-19T02:55:47.445Z,8.0
2017-09-19T02:56:50.384Z,8.0
2017-09-19T02:57:52.759Z,7.6
2017-09-19T02:58:55.879Z,7.8
2017-09-19T03:00:00.055Z,7.8
2017-09-19T03:01:02.558Z,7.7
2017-09-19T03:02:06.330Z,8.0
2017-09-19T03:03:09.490Z,9.9
2017-09-19T03:04:12.448Z,10.8
2017-09-19T03:05:15.576Z,12.0
2017-09-19T03:06:20.175Z,11.1
2017-09-19T03:07:23.644Z,10.9
2017-09-19T03:08:27.669Z,11.5
2017-09-19T03:09:29.323Z,11.1
2017-09-19T03:10:31.941Z,10.6
2017-09-19T03:11:34.777Z,10.8
2017-09-19T03:12:37.790Z,9.7
2017-09-19T03:13:40.924Z,8.9
2017-09-19T03:14:44.926Z,9.7
2017-09-19T03:15:47.089Z,10.0
2017-09-19T03:16:50.283Z,9.9
2017-09-19T03:17:53.341Z,10.2
2017-09-19T03:18:56.331Z,10.4
2017-09-19T03:19:59.692Z,10.7
2017-09-19T03:21:02.991Z,10.8
2017-09-19T03:22:06.909Z,10.4
2017-09-19T03:23:09.683Z,10.6
2017-09-19T03:24:14.094Z,11.1
2017-09-19T03:25:18.033Z,11.0
2017-09-19T03:26:21.342Z,10.4
2017-09-19T03:27:24.182Z,11.4
2017-09-19T03:28:28.181Z,11.5
2017-09-19T03:29:31.256Z,10.6
2017-09-19T03:30:33.837Z,11.3
2017-09-19T03:31:36.172Z,10.7
2017-09-19T03:32:40.215Z,10.4
2017-09-19T03:33:43.109Z,10.3
2017-09-19T03:34:48.804Z,10.5
2017-09-19T03:35:50.458Z,11.3
2017-09-19T03:36:54.480Z,11.7
2017-09-19T03:37:56.132Z,12.0
2017-09-19T03:38:59.255Z,11.8
2017-09-19T03:40:03.065Z,12.8
2017-09-19T03:41:04.548Z,12.0
2017-09-19T03:42:06.816Z,12.3
2017-09-19T03:43:09.883Z,12.3
2017-09-19T03:44:13.165Z,13.5
2017-09-19T03:45:17.898Z,12.3
2017-09-19T03:46:21.061Z,12.5
2017-09-19T03:47:24.350Z,12.7
2017-09-19T03:48:26.062Z,12.7
2017-09-19T03:49:32.184Z,12.5
2017-09-19T03:50:34.639Z,11.8
2017-09-19T03:51:36.346Z,12.0
2017-09-19T03:52:41.185Z,12.3
2017-09-19T03:53:44.261Z,12.2
2017-09-19T03:54:46.806Z,13.0
2017-09-19T03:55:50.061Z,12.3
2017-09-19T03:56:53.061Z,12.6
2017-09-19T03:57:53.956Z,12.4
2017-09-19T03:58:58.995Z,12.6
2017-09-19T04:00:04.125Z,14.1
2017-09-19T04:01:08.562Z,12.5
2017-09-19T04:02:10.571Z,13.2
2017-09-19T04:03:12.232Z,13.3
2017-09-19T04:04:14.956Z,13.3
2017-09-19T04:05:17.308Z,13.9
2017-09-19T04:06:20.478Z,13.1
2017-09-19T04:07:25.066Z,13.6
2017-09-19T04:08:27.115Z,13.4
2017-09-19T04:09:30.171Z,13.0
2017-09-19T04:10:34.829Z,13.6
2017-09-19T04:11:36.484Z,14.8
2017-09-19T04:12:40.656Z,15.0
2017-09-19T04:13:42.921Z,13.7
2017-09-19T04:14:47.073Z,13.6
2017-09-19T04:15:49.617Z,14.1
2017-09-19T04:16:52.167Z,13.7
2017-09-19T04:17:54.716Z,14.4
2017-09-19T04:18:58.865Z,15.0
2017-09-19T04:20:02.873Z,14.5
2017-09-19T04:21:06.456Z,14.8
2017-09-19T04:22:09.975Z,14.6
2017-09-19T04:23:13.604Z,14.3
2017-09-19T04:24:17.564Z,15.5
2017-09-19T04:25:19.876Z,17.1
2017-09-19T04:26:24.256Z,15.8
2017-09-19T04:27:29.371Z,16.3
2017-09-19T04:28:31.025Z,16.1
2017-09-19T04:29:34.202Z,15.6
2017-09-19T04:30:36.686Z,16.3
2017-09-19T04:31:39.655Z,15.1
2017-09-19T04:32:43.504Z,16.2
2017-09-19T04:33:47.313Z,16.3
2017-09-19T04:34:50.346Z,15.8
2017-09-19T04:35:54.065Z,17.3
2017-09-19T04:36:55.716Z,16.6
2017-09-19T04:37:58.133Z,17.0
2017-09-19T04:39:01.315Z,17.0
2017-09-19T04:40:03.983Z,17.4
2017-09-19T04:41:06.964Z,18.7
2017-09-19T04:42:10.224Z,18.3
2017-09-19T04:43:12.665Z,18.9
2017-09-19T04:44:17.566Z,16.8
2017-09-19T04:45:19.920Z,17.4
2017-09-19T04:46:22.147Z,16.8
2017-09-19T04:47:27.334Z,16.9
2017-09-19T04:48:29.865Z,17.6
2017-09-19T04:49:33.773Z,16.5
2017-09-19T04:50:36.275Z,17.1
2017-09-19T04:51:40.224Z,17.9
2017-09-19T04:52:44.066Z,18.5
2017-09-19T04:53:45.667Z,17.7
2017-09-19T04:54:48.831Z,18.0
2017-09-19T04:55:53.767Z,18.4
2017-09-19T04:56:57.248Z,18.0
2017-09-19T04:58:00.811Z,18.5
2017-09-19T04:59:04.665Z,26.9
2017-09-19T05:00:07.613Z,31.3
2017-09-19T05:01:09.822Z,32.8
2017-09-19T05:02:14.399Z,30.8
2017-09-19T05:03:16.686Z,30.0
2017-09-19T05:04:20.737Z,28.8
2017-09-19T05:05:24.968Z,29.3
2017-09-19T05:06:30.235Z,28.2
2017-09-19T05:07:32.972Z,28.4
2017-09-19T05:08:36.400Z,28.6
2017-09-19T05:09:39.336Z,27.1
2017-09-19T05:10:44.567Z,26.5
2017-09-19T05:11:48.641Z,26.1
2017-09-19T05:12:51.622Z,25.0
2017-09-19T05:13:54.367Z,24.5
2017-09-19T05:14:57.905Z,24.9
2017-09-19T05:16:03.643Z,24.2
2017-09-19T05:17:11.571Z,24.0
2017-09-19T05:18:21.659Z,24.4
2017-09-19T05:19:30.120Z,23.4
2017-09-19T05:20:33.691Z,23.7
2017-09-19T05:21:38.312Z,25.3
2017-09-19T05:22:40.854Z,25.1
2017-09-19T05:23:43.340Z,26.1
2017-09-19T05:24:46.269Z,24.9
2017-09-19T05:25:50.679Z,26.1
2017-09-19T05:26:53.819Z,26.9
2017-09-19T05:27:57.458Z,27.4
2017-09-19T05:29:00.251Z,28.4
2017-09-19T05:30:03.400Z,29.0
2017-09-19T05:31:05.066Z,30.4
2017-09-19T05:32:07.321Z,30.5
2017-09-19T05:33:09.685Z,27.7
2017-09-19T05:34:13.576Z,27.0
2017-09-19T05:35:15.322Z,29.7
2017-09-19T05:36:20.484Z,29.6
2017-09-19T05:37:22.991Z,28.8
2017-09-19T05:38:26.253Z,28.6
2017-09-19T05:39:31.336Z,30.7
2017-09-19T05:40:34.859Z,29.6
2017-09-19T05:41:38.706Z,29.9
2017-09-19T05:42:41.196Z,28.7
2017-09-19T05:43:44.204Z,28.8
2017-09-19T05:44:45.867Z,29.8
2017-09-19T05:45:50.567Z,29.5
2017-09-19T05:46:55.069Z,28.7
2017-09-19T05:47:58.216Z,30.8
2017-09-19T05:49:01.579Z,30.7
2017-09-19T05:50:03.233Z,30.7
2017-09-19T05:51:07.170Z,29.5
2017-09-19T05:52:11.123Z,30.3
2017-09-19T05:53:13.446Z,30.5
2017-09-19T05:54:15.905Z,28.1
2017-09-19T05:55:19.332Z,29.3
2017-09-19T06:01:51.551Z,23.9
2017-09-19T06:02:54.557Z,27.6
2017-09-19T06:03:57.572Z,27.8
2017-09-19T06:05:01.423Z,28.9
2017-09-19T06:06:06.262Z,30.1
2017-09-19T06:07:08.645Z,31.0
2017-09-19T06:08:11.116Z,29.1
2017-09-19T06:09:14.166Z,29.7
2017-09-19T06:10:16.416Z,28.9
2017-09-19T06:11:18.693Z,27.8
2017-09-19T06:12:21.622Z,28.7
2017-09-19T06:13:24.976Z,29.1
2017-09-19T06:14:29.087Z,28.2
2017-09-19T06:15:30.751Z,27.2
2017-09-19T06:16:35.296Z,28.2
2017-09-19T06:17:37.603Z,27.8
2017-09-19T06:18:40.008Z,27.2
2017-09-19T06:19:44.676Z,27.6
2017-09-19T06:20:48.552Z,26.9
2017-09-19T06:21:53.130Z,26.3
2017-09-19T06:22:56.690Z,25.9
2017-09-19T06:24:00.528Z,24.4
2017-09-19T06:25:03.106Z,24.1
2017-09-19T06:26:06.999Z,25.4
2017-09-19T06:27:12.500Z,24.1
2017-09-19T06:28:14.629Z,23.3
2017-09-19T06:29:16.943Z,21.7
2017-09-19T06:30:19.580Z,22.4
2017-09-19T06:31:22.148Z,22.3
2017-09-19T06:32:26.141Z,21.9
2017-09-19T06:33:27.802Z,22.0
2017-09-19T06:34:32.567Z,22.0
2017-09-19T06:35:35.709Z,22.7
2017-09-19T06:36:40.522Z,22.0
2017-09-19T06:37:42.811Z,23.5
2017-09-19T06:38:45.118Z,22.1
2017-09-19T06:39:49.739Z,21.2
2017-09-19T06:40:51.404Z,22.3
2017-09-19T06:41:54.936Z,22.6
2017-09-19T06:42:58.973Z,21.7
2017-09-19T06:44:02.215Z,21.9
2017-09-19T06:45:05.250Z,21.5
2017-09-19T06:46:07.641Z,21.3
2017-09-19T06:47:10.746Z,16.7
2017-09-19T06:48:14.780Z,17.6
2017-09-19T06:49:17.859Z,17.9
2017-09-19T06:50:20.749Z,18.6
2017-09-19T06:51:23.261Z,19.3
2017-09-19T06:52:26.086Z,21.7
2017-09-19T06:53:28.443Z,19.1
2017-09-19T06:54:30.895Z,19.0
2017-09-19T06:55:34.066Z,17.4
2017-09-19T06:56:38.504Z,17.1
2017-09-19T06:57:40.415Z,19.4
2017-09-19T06:58:43.585Z,17.4
2017-09-19T06:59:47.338Z,17.0
2017-09-19T07:00:50.642Z,18.7
2017-09-19T07:01:53.326Z,15.7
2017-09-19T07:02:56.736Z,14.0
2017-09-19T07:04:00.671Z,14.6
2017-09-19T07:05:03.326Z,14.3
2017-09-19T07:06:06.183Z,13.3
2017-09-19T07:07:09.179Z,12.5
2017-09-19T07:08:13.346Z,7.9
2017-09-19T07:09:15.600Z,6.2
2017-09-19T07:10:17.950Z,7.0
2017-09-19T07:11:22.067Z,6.1
2017-09-19T07:12:25.092Z,5.9
2017-09-19T07:13:28.191Z,6.5
2017-09-19T07:14:30.509Z,5.6
2017-09-19T07:15:33.008Z,5.6
2017-09-19T07:16:35.177Z,5.5
2017-09-19T07:17:39.095Z,5.9
2017-09-19T07:18:42.804Z,5.8
2017-09-19T07:19:46.087Z,5.3
2017-09-19T07:20:50.620Z,6.0
2017-09-19T07:21:54.012Z,6.0
2017-09-19T07:22:56.445Z,5.3
2017-09-19T07:24:00.096Z,5.9
2017-09-19T07:25:03.477Z,6.0
2017-09-19T07:26:07.537Z,5.0
2017-09-19T07:27:09.794Z,5.3
2017-09-19T07:28:12.915Z,5.2
2017-09-19T07:29:15.055Z,5.2
2017-09-19T07:30:19.070Z,5.3
2017-09-19T07:31:21.339Z,5.5
2017-09-19T07:32:23.599Z,5.4
2017-09-19T07:33:27.526Z,5.1
2017-09-19T07:34:31.274Z,4.9
2017-09-19T07:35:33.624Z,5.8
2017-09-19T07:36:36.120Z,5.1
2017-09-19T07:37:39.016Z,5.2
2017-09-19T07:38:39.998Z,5.3
2017-09-19T07:39:42.494Z,5.5
2017-09-19T07:40:46.270Z,4.8
2017-09-19T07:41:47.935Z,4.5
2017-09-19T07:42:53.131Z,5.1
2017-09-19T07:43:55.302Z,5.1
2017-09-19T07:44:58.369Z,5.0
2017-09-19T07:46:03.017Z,5.0
2017-09-19T07:47:06.563Z,5.9
2017-09-19T07:48:10.564Z,4.6
2017-09-19T07:49:13.944Z,5.5
2017-09-19T07:50:15.607Z,5.8
2017-09-19T07:51:17.910Z,5.7
2017-09-19T07:52:21.649Z,5.2
2017-09-19T07:53:24.910Z,6.3
2017-09-19T07:54:27.139Z,6.5
2017-09-19T07:55:28.841Z,6.5
2017-09-19T07:56:30.606Z,6.3
2017-09-19T07:57:32.760Z,7.0
2017-09-19T07:58:37.131Z,8.5
2017-09-19T07:59:39.544Z,8.3
2017-09-19T08:00:41.203Z,9.1
2017-09-19T08:01:44.813Z,10.1
2017-09-19T08:02:48.329Z,10.5
2017-09-19T08:03:52.618Z,9.8
2017-09-19T08:04:54.535Z,9.9
2017-09-19T08:05:56.959Z,9.9
2017-09-19T08:06:59.565Z,10.0
2017-09-19T08:08:03.649Z,10.1
2017-09-19T08:09:05.319Z,10.4
2017-09-19T08:10:07.857Z,11.9
2017-09-19T08:11:09.549Z,11.6
2017-09-19T08:12:12.644Z,10.7
2017-09-19T08:13:16.653Z,10.2
2017-09-19T08:14:21.019Z,10.6
2017-09-19T08:15:25.570Z,11.3
2017-09-19T08:16:28.502Z,10.9
2017-09-19T08:17:32.622Z,10.1
2017-09-19T08:18:34.304Z,10.9
2017-09-19T08:19:38.484Z,10.9
2017-09-19T08:20:40.183Z,11.3
2017-09-19T08:21:42.761Z,11.3
2017-09-19T08:22:46.270Z,10.6
2017-09-19T08:23:49.147Z,10.8
2017-09-19T08:24:53.018Z,11.1
2017-09-19T08:25:54.823Z,11.3
2017-09-19T08:26:58.680Z,10.9
2017-09-19T08:28:02.172Z,10.6
2017-09-19T08:29:05.188Z,11.7
2017-09-19T08:30:07.614Z,11.7
2017-09-19T08:31:09.318Z,12.5
2017-09-19T08:32:12.372Z,11.9
2017-09-19T08:33:15.339Z,11.9
2017-09-19T08:34:17.864Z,13.8
2017-09-19T08:35:22.335Z,12.3
2017-09-19T08:36:26.107Z,12.4
2017-09-19T08:37:29.309Z,13.1
2017-09-19T08:38:32.073Z,13.8
2017-09-19T08:39:35.021Z,11.5
2017-09-19T08:40:37.628Z,11.1
2017-09-19T08:41:40.191Z,11.7
2017-09-19T08:42:43.281Z,12.7
2017-09-19T08:43:46.319Z,11.7
2017-09-19T08:44:49.884Z,12.2
2017-09-19T08:45:52.440Z,12.5
2017-09-19T08:46:57.115Z,12.2
2017-09-19T08:47:58.775Z,12.5
2017-09-19T08:49:00.433Z,12.0
2017-09-19T08:50:03.216Z,12.1
2017-09-19T08:51:08.404Z,10.3
2017-09-19T08:52:12.587Z,10.7
2017-09-19T08:53:18.070Z,10.1
2017-09-19T08:54:23.592Z,11.6
2017-09-19T08:55:26.151Z,12.0
2017-09-19T08:56:30.517Z,11.6
2017-09-19T08:57:34.021Z,10.9
2017-09-19T08:58:36.638Z,10.3
2017-09-19T08:59:39.222Z,11.0
2017-09-19T09:00:42.471Z,11.0
2017-09-19T09:01:48.621Z,10.8
2017-09-19T09:02:52.971Z,10.8
2017-09-19T09:03:55.249Z,11.1
2017-09-19T09:04:59.697Z,10.4
2017-09-19T09:06:07.736Z,11.0
2017-09-19T09:07:12.028Z,10.6
2017-09-19T09:08:12.776Z,9.8
2017-09-19T09:09:15.203Z,11.1
2017-09-19T09:10:17.659Z,9.2
2017-09-19T09:11:21.007Z,10.8
2017-09-19T09:12:23.293Z,9.7
2017-09-19T09:13:27.594Z,10.3
2017-09-19T09:14:31.279Z,10.7
2017-09-19T09:15:33.407Z,9.6
2017-09-19T09:16:35.792Z,9.4
2017-09-19T09:17:38.817Z,9.9
2017-09-19T09:18:41.259Z,9.9
2017-09-19T09:19:43.520Z,10.5
2017-09-19T09:20:47.814Z,11.0
2017-09-19T09:21:51.486Z,10.0
2017-09-19T09:22:54.784Z,10.4
2017-09-19T09:23:58.873Z,9.8
2017-09-19T09:25:02.000Z,10.7
2017-09-19T09:26:05.573Z,10.6
2017-09-19T09:27:07.773Z,11.0
2017-09-19T09:28:10.110Z,11.0
2017-09-19T09:29:14.533Z,10.4
2017-09-19T09:30:17.221Z,10.2
2017-09-19T09:31:20.713Z,10.2
2017-09-19T09:32:24.667Z,9.0
2017-09-19T09:33:27.333Z,8.6
2017-09-19T09:34:29.570Z,8.9
2017-09-19T09:35:32.331Z,9.3
2017-09-19T09:36:35.244Z,8.6
2017-09-19T09:37:39.104Z,8.3
2017-09-19T09:38:40.745Z,8.3
2017-09-19T09:39:42.475Z,7.7
2017-09-19T09:40:46.573Z,8.3
2017-09-19T09:41:48.237Z,8.6
2017-09-19T09:42:53.312Z,8.1
2017-09-19T09:43:55.493Z,8.1
2017-09-19T09:44:57.708Z,7.6
2017-09-19T09:46:01.269Z,7.8
2017-09-19T09:47:04.447Z,7.3
2017-09-19T09:48:06.182Z,8.1
2017-09-19T09:49:09.596Z,7.7
2017-09-19T09:50:11.381Z,7.7
2017-09-19T09:51:14.530Z,7.2
2017-09-19T09:52:16.163Z,7.8
2017-09-19T09:53:19.532Z,8.6
2017-09-19T09:54:21.955Z,8.1
2017-09-19T09:55:25.757Z,7.9
2017-09-19T10:01:32.894Z,6.0
2017-09-19T10:02:39.826Z,6.3
2017-09-19T10:03:41.978Z,6.1
2017-09-19T10:04:44.867Z,6.3
2017-09-19T10:05:49.539Z,5.8
2017-09-19T10:06:53.445Z,6.7
2017-09-19T10:07:55.144Z,7.5
2017-09-19T10:08:59.261Z,6.6
2017-09-19T10:10:01.761Z,6.5
2017-09-19T10:11:05.236Z,5.9
2017-09-19T10:12:07.447Z,6.0
2017-09-19T10:13:12.195Z,6.1
2017-09-19T10:14:13.573Z,5.8
2017-09-19T10:15:16.431Z,5.7
2017-09-19T10:16:19.404Z,5.8
2017-09-19T10:17:25.009Z,6.3
2017-09-19T10:18:27.695Z,5.9
2017-09-19T10:19:31.848Z,6.4
2017-09-19T10:20:36.745Z,6.3
2017-09-19T10:21:40.703Z,6.4
2017-09-19T10:22:42.284Z,6.6
2017-09-19T10:23:46.333Z,7.0
2017-09-19T10:24:49.346Z,6.7
2017-09-19T10:25:53.321Z,6.5
2017-09-19T10:26:56.475Z,6.6
2017-09-19T10:27:58.166Z,6.1
2017-09-19T10:29:00.704Z,5.5
2017-09-19T10:30:02.620Z,5.4
2017-09-19T10:31:04.289Z,5.8
2017-09-19T10:32:08.198Z,4.5
2017-09-19T10:33:09.906Z,4.7
2017-09-19T10:34:15.795Z,5.2
2017-09-19T10:35:17.480Z,5.2
2017-09-19T10:36:19.901Z,4.8
2017-09-19T10:37:23.450Z,4.6
2017-09-19T10:38:25.297Z,4.8
2017-09-19T10:39:27.767Z,4.1
2017-09-19T10:40:29.477Z,4.4
2017-09-19T10:41:32.947Z,4.3
2017-09-19T10:42:36.978Z,4.0
2017-09-19T10:43:39.196Z,3.9
2017-09-19T10:44:42.773Z,3.5
2017-09-19T10:45:46.880Z,4.1
2017-09-19T10:46:48.588Z,3.8
2017-09-19T10:47:50.259Z,3.9
2017-09-19T10:48:52.770Z,3.4
2017-09-19T10:49:55.976Z,3.0
2017-09-19T10:50:57.666Z,3.6
2017-09-19T10:51:59.335Z,3.3
2017-09-19T10:53:02.930Z,2.8
2017-09-19T10:54:04.594Z,2.7
2017-09-19T10:55:08.279Z,3.4
2017-09-19T10:56:09.956Z,3.0
2017-09-19T10:57:12.293Z,3.1
2017-09-19T10:58:13.978Z,2.7
2017-09-19T10:59:16.261Z,2.7
2017-09-19T11:00:19.704Z,2.7
2017-09-19T11:01:21.413Z,2.9
2017-09-19T11:02:24.947Z,3.1
2017-09-19T11:03:28.218Z,3.0
2017-09-19T11:04:31.376Z,2.7
2017-09-19T11:05:35.246Z,2.8
2017-09-19T11:06:38.319Z,2.5
2017-09-19T11:07:40.677Z,2.1
2017-09-19T11:08:43.276Z,2.4
2017-09-19T11:09:49.939Z,2.7
2017-09-19T11:10:52.296Z,2.6
2017-09-19T11:11:58.172Z,2.6
2017-09-19T11:13:01.407Z,2.3
2017-09-19T11:14:04.764Z,2.5
2017-09-19T11:15:08.396Z,2.4
2017-09-19T11:16:10.060Z,2.1
2017-09-19T11:17:14.072Z,2.2
2017-09-19T11:18:17.327Z,2.0
2017-09-19T11:19:19.650Z,2.0
2017-09-19T11:20:21.802Z,2.2
2017-09-19T11:21:26.210Z,2.6
2017-09-19T11:22:28.262Z,2.5
2017-09-19T11:23:31.430Z,2.4
2017-09-19T11:24:35.709Z,2.3
2017-09-19T11:25:39.793Z,2.3
2017-09-19T11:26:43.335Z,2.4
2017-09-19T11:27:45.870Z,2.4
2017-09-19T11:28:51.295Z,2.4
2017-09-19T11:29:52.999Z,2.1
2017-09-19T11:30:56.431Z,2.4
2017-09-19T11:31:58.944Z,2.2
2017-09-19T11:33:01.968Z,2.2
2017-09-19T11:34:06.048Z,2.2
2017-09-19T11:35:08.321Z,2.0
2017-09-19T11:36:12.331Z,1.9
2017-09-19T11:37:15.420Z,2.1
2017-09-19T11:38:17.993Z,2.0
2017-09-19T11:39:20.260Z,1.9
2017-09-19T11:40:25.846Z,2.6
2017-09-19T11:41:29.262Z,2.4
2017-09-19T11:42:35.014Z,2.0
2017-09-19T11:43:40.517Z,1.8
2017-09-19T11:44:45.645Z,1.8
2017-09-19T11:45:48.261Z,1.6
2017-09-19T11:46:50.772Z,1.6
2017-09-19T11:47:53.770Z,1.8
2017-09-19T11:48:56.814Z,2.3
2017-09-19T11:50:00.368Z,1.9
2017-09-19T11:51:05.377Z,1.6
2017-09-19T11:52:09.340Z,1.9
2017-09-19T11:53:12.716Z,1.9
2017-09-19T11:54:14.305Z,1.9
2017-09-19T11:55:19.126Z,2.2
2017-09-19T11:56:21.380Z,2.6
2017-09-19T11:57:24.827Z,2.4
2017-09-19T11:58:27.893Z,2.7
2017-09-19T11:59:32.925Z,2.6
2017-09-19T12:00:37.220Z,2.7
2017-09-19T12:01:39.497Z,3.3
2017-09-19T12:02:41.222Z,2.8
2017-09-19T12:03:43.670Z,2.8
2017-09-19T12:04:48.789Z,2.9
2017-09-19T12:05:51.512Z,2.8
2017-09-19T12:06:55.752Z,3.1
2017-09-19T12:07:58.348Z,3.2
2017-09-19T12:09:00.586Z,3.1
2017-09-19T12:10:02.910Z,3.4
2017-09-19T12:11:06.218Z,3.6
2017-09-19T12:12:07.995Z,2.8
2017-09-19T12:13:11.222Z,3.4
2017-09-19T12:14:13.307Z,3.3
2017-09-19T12:15:15.097Z,3.0
2017-09-19T12:16:19.340Z,3.2
2017-09-19T12:17:21.820Z,3.7
2017-09-19T12:18:24.111Z,2.9
2017-09-19T12:19:27.966Z,3.3
2017-09-19T12:20:30.443Z,3.0
2017-09-19T12:21:32.888Z,3.4
2017-09-19T12:22:36.228Z,3.5
2017-09-19T12:23:38.759Z,3.1
2017-09-19T12:24:41.627Z,2.8
2017-09-19T12:25:44.072Z,3.4
2017-09-19T12:26:47.019Z,3.8
2017-09-19T12:27:49.568Z,3.2
2017-09-19T12:28:52.596Z,2.5
2017-09-19T12:29:55.149Z,3.1
2017-09-19T12:30:58.082Z,3.0
2017-09-19T12:31:59.753Z,2.9
2017-09-19T12:33:01.451Z,2.5
2017-09-19T12:34:06.337Z,2.5
2017-09-19T12:35:09.793Z,2.1
2017-09-19T12:36:13.224Z,2.7
2017-09-19T12:37:17.284Z,2.8
2017-09-19T12:38:21.125Z,2.7
2017-09-19T12:39:23.504Z,2.8
2017-09-19T12:40:26.728Z,2.9
2017-09-19T12:41:28.465Z,2.6
2017-09-19T12:42:32.435Z,2.8
2017-09-19T12:43:35.856Z,2.4
2017-09-19T12:44:38.382Z,3.0
2017-09-19T12:45:42.625Z,2.9
2017-09-19T12:46:46.007Z,3.4
2017-09-19T12:47:48.451Z,3.8
2017-09-19T12:48:50.129Z,3.9
2017-09-19T12:49:52.953Z,3.7
2017-09-19T12:50:55.502Z,3.2
2017-09-19T12:51:59.779Z,4.5
2017-09-19T12:53:01.470Z,3.7
2017-09-19T12:54:04.962Z,3.9
2017-09-19T12:55:06.675Z,4.1
2017-09-19T12:56:10.066Z,3.5
2017-09-19T12:57:13.543Z,3.7
2017-09-19T12:58:16.473Z,3.2
2017-09-19T12:59:19.929Z,3.5
2017-09-19T13:00:22.332Z,3.4
2017-09-19T13:01:24.738Z,3.4
2017-09-19T13:02:27.405Z,3.8
2017-09-19T13:03:30.789Z,3.5
2017-09-19T13:04:34.433Z,3.5
2017-09-19T13:05:38.236Z,3.6
2017-09-19T13:06:41.386Z,3.1
2017-09-19T13:07:43.735Z,3.5
2017-09-19T13:08:46.080Z,3.3
2017-09-19T13:09:48.779Z,3.2
2017-09-19T13:10:51.421Z,3.6
2017-09-19T13:11:53.735Z,3.7
2017-09-19T13:12:55.720Z,3.2
2017-09-19T13:13:58.353Z,3.4
2017-09-19T13:15:00.924Z,3.0
2017-09-19T13:16:02.597Z,3.3
2017-09-19T13:17:07.592Z,3.4
2017-09-19T13:18:10.145Z,3.2
2017-09-19T13:19:12.802Z,3.1
2017-09-19T13:20:15.891Z,3.4
2017-09-19T13:21:18.872Z,3.5
2017-09-19T13:22:22.259Z,3.4
2017-09-19T13:24:39.375Z,3.2
2017-09-19T13:25:45.845Z,2.8
2017-09-19T13:26:48.278Z,2.5
2017-09-19T13:27:50.170Z,2.8
2017-09-19T13:28:55.736Z,3.2
2017-09-19T13:29:57.038Z,2.9
2017-09-19T13:31:01.363Z,2.9
2017-09-19T13:32:06.438Z,2.5
2017-09-19T13:33:09.488Z,2.6
2017-09-19T13:34:12.477Z,2.6
2017-09-19T13:35:14.169Z,3.2
2017-09-19T13:36:17.346Z,2.8
2017-09-19T13:37:20.451Z,2.4
2017-09-19T13:38:23.792Z,2.6
2017-09-19T13:39:26.391Z,3.3
2017-09-19T13:40:28.831Z,2.9
2017-09-19T13:41:31.028Z,2.9
2017-09-19T13:42:33.924Z,2.7
2017-09-19T13:43:36.568Z,2.8
2017-09-19T13:44:39.802Z,2.8
2017-09-19T13:45:42.358Z,2.9
2017-09-19T13:46:44.544Z,2.5
2017-09-19T13:47:46.920Z,2.8
2017-09-19T13:48:51.053Z,2.9
2017-09-19T13:49:53.392Z,3.3
2017-09-19T13:50:55.064Z,3.6
2017-09-19T13:51:57.105Z,3.1
2017-09-19T13:53:01.251Z,3.0
2017-09-19T13:54:03.803Z,2.9
2017-09-19T13:55:07.316Z,3.2
2017-09-19T14:01:04.236Z,2.6
2017-09-19T14:02:06.582Z,2.8
2017-09-19T14:03:09.025Z,2.9
2017-09-19T14:04:12.685Z,2.8
2017-09-19T14:05:14.117Z,3.0
2017-09-19T14:06:17.113Z,3.1
2017-09-19T14:07:20.204Z,3.1
2017-09-19T14:08:22.559Z,3.4
2017-09-19T14:09:24.749Z,3.5
2017-09-19T14:10:29.025Z,3.4
2017-09-19T14:11:32.210Z,3.1
2017-09-19T14:12:37.210Z,3.3
2017-09-19T14:14:04.679Z,3.2
2017-09-19T14:15:14.287Z,3.4
2017-09-19T14:16:37.670Z,3.6
2017-09-19T14:17:42.934Z,2.8
2017-09-19T14:18:46.311Z,3.6
2017-09-19T14:19:51.179Z,3.5
2017-09-19T14:20:53.837Z,3.7
2017-09-19T14:21:56.195Z,3.8
2017-09-19T14:22:59.715Z,3.9
2017-09-19T14:24:02.670Z,3.8
2017-09-19T14:25:05.588Z,4.1
2017-09-19T14:26:08.672Z,5.1
2017-09-19T14:27:10.280Z,4.5
2017-09-19T14:28:14.671Z,4.6
2017-09-19T14:29:17.275Z,4.3
2017-09-19T14:30:20.662Z,5.2
2017-09-19T14:31:23.883Z,4.0
2017-09-19T14:32:27.215Z,7.4
2017-09-19T14:33:29.677Z,5.3
2017-09-19T14:34:32.872Z,6.5
2017-09-19T14:35:36.184Z,4.3
2017-09-19T14:36:37.468Z,35.1
2017-09-19T14:37:39.738Z,46.9
2017-09-19T14:38:42.727Z,17.9
2017-09-19T14:39:44.392Z,11.9
2017-09-19T14:40:47.132Z,7.9